Pagrindinis puslapis
METAR-TAF:

METAR-TAF

Oro uostai :

Maljorkos Palma, Ispanija

platuma: 39-33N, ilguma: 002-44E, Aukštis: 4 m

Dabartinis oras

Ataskaita buvo paskelbta 26 minutes, ne 17:30 UTC
Vėjas 2 kt iš Pietvakarių
Temperatūra 22°C
Drėgmė 78%
Slėgis 1015 hPa
Matomumas: 8000 m
Mažai debesys ne aukštis 2000 ft

METAR: LEPA 221730Z 23002KT 8000 FEW020 22/18 Q1015 NOSIG

Laikas: 19:56 (17:56 UTC)

Prognozė

Ataskaita buvo paskelbta 56 minutes, ne 17:00 UTC
Prognozė galioja nuo 22 metu 18 UTC su 23 metu 18 UTC
Vėjas 3 kt nuo kintamojo kryptimis
Matomumas 10 km arba daugiau
Mažai debesys ne aukštis 2000 ft
Tikimybė 30% :
Laikinai
nuo 23 metu 00 UTC su 23 metu 06 UTC
Mažai debesys ne aukštis 4000 ft, Liūtiniai kamuoliniai debesys.
lietus
Tapsmas
nuo 23 metu 02 UTC su 23 metu 04 UTC
Vėjas 13 kt iš Pietvakarių

TAF: LEPA 221700Z 2218/2318 VRB03KT 9999 FEW020 TX24/2312Z TN14/2306Z PROB30 TEMPO 2300/2306 SHRA FEW040CB BECMG 2302/2304 22013KT

Orai ataskaitas ir orų prognozės (METAR, TAF).

turimą stotys yra geltonos ir raudonos taškus žemėlapyje.

Perkelti pele per norėdami pamatyti stoties vardą.

Tada spustelėkite, norėdami matyti oro stebėjimo ir prognozės.

Norėdami pakeisti žemėlapį: spustelėkite ant žalios mygtukų su juodo kryžiaus žemyn,; žalią mygtuką su brūkšneliu, jei norite nutolinti; arba žalių rodyklių gretimoms žemėlapius.


METAR-TAF: